Relevés horaires St-Hubert (Belgique)


Relevés horaires à St-Hubert - Samedi 28 Avr. 2018
Heure UTC1 Température [°C] Vent [km/h] Hum. [%] Pres.4 [hPa] Visi. [Km] Nébu. [octa] Préc.5 [mm] Cond.
2m. Res. Ros. Dir.2 Vit. Moy. Raf.3
23:00 3.8 3.8 2.3 SSE 3.7 3.7 5.6 90 1013.5(-0.6/3h) 35 0/8 -- --
22:00 5.1 5.1 3.5 S 3.7 3.7 5.6 89 1013.2(0.1/3h) 27 0/8 -- --
21:00 5.3 5.3 3.8 S 3.7 3.7 63.0 90 1013.5(0.6/3h) 30 0/8 -- --
20:00 6.1 6.1 4.1 SSO 3.7 3.7 7.4 87 1013.6(0.6/3h) 40 0/8 -- --
19:00 7.7 7.7 4.9 SSO 1.9 3.7 5.6 82 1012.6(0.3/3h) 40 0/8 -- --
18:00 9.0 9.0 5.1 SSE 3.7 11.1 20.4 77 1011.9(-0.5/3h) 45 1/8 0/12h
--
17:00 9.7 9.7 4.0 SSO 3.7 5.6 9.3 68 1012(0.1/3h) 40 1/8 -- --
16:00 10.5 10.2 3.5 S 5.6 7.4 13.0 62 1011.7(-0.5/3h) 25 0/8 -- Ciel clair
15:00 11.1 10.8 3.1 SO 5.6 11.1 20.4 58 1012(0.2/3h) 35 0/8 -- --
14:00 12.1 11.2 3.6 SO 9.3 9.3 16.7 56 1011.6(-0.3/3h) 40 0/8 -- --
13:00 12.0 11.5 2.7 SO 7.4 11.1 20.4 53 1011.9(0.2/3h) 35 0/8 -- --
12:00 11.6 11 2.4 SSO 7.4 9.3 18.5 53 1012.1(0.0/3h) 35 1/8 0/6h
--
11:00 11.1 10.4 4.5 S 7.4 9.3 16.7 64 1012.1(0.4/3h) 30 0/8 -- --
10:00 9.3 8.8 4.7 S 5.6 9.3 14.8 73 1012.7(0.8/3h) 30 3/8 -- --
09:00 8.7 8.1 4.5 SSO 5.6 9.3 16.7 75 1012.7(1.0/3h) 28 3/8 -- --
08:00 8.1 7.4 4.7 SO 5.6 9.3 16.7 79 1012.4(1.3/3h) 26 5/8 -- --
07:00 7.5 6.2 4.5 SO 7.4 7.4 16.7 81 1012.3(1.3/3h) 24 6/8 -- --
06:00 7.0 5.6 3.9 SSO 7.4 9.3 92.6 81 1012(0.9/3h) 23 4/8 0/12h
--
05:00 6.9 5.5 3.5 SO 7.4 9.3 16.7 79 1011.4(0.4/3h) 22 5/8 -- --
04:00 7.0 5.6 3.1 SSO 7.4 9.3 14.8 76 1011.1(0.4/3h) 26 6/8 -- --
03:00 7.2 5.4 3.1 SSO 9.3 9.3 92.6 75 1011(0.2/3h) 26 7/8 -- --
02:00 7.4 5.7 2.9 SO 9.3 9.3 14.8 73 1010.8(0.3/3h) 24 3/8 -- --
01:00 8.0 6.8 3.1 SSO 7.4 7.4 92.6 71 1010.5(0.7/3h) 25 1/8 -- --
00:00 8.6 7.5 3.0 SO 7.4 11.1 20.4 68 1010.5(1.0/3h) 26 0/8 0/6h
0/24h
--

1 Coordinated Universal Time. Actuellement il est 13:00 locale et 11:00 UTC.

2 Le vent souffle depuis la direction indiquée vers la direction oposée.

3 Les rafales max. sont disponible 40 min après l'heure du relevé.

4 Pour les stations d'altitude (plus de 600m) le géopotentiel du niveau le plus proche de la pression obligatoire est indiqué.

5 Les stations disposant d'un diffuseur peuvent indiquer "trace". Cela signifie que des précipitations ont touchés le sol mais que la quantité est inférieure à 0.1 mm.

Récapitulatif de la journée
Température [°C] Vent [km/h] Ensoleillement4 [h] Precipitations totale5 [mm] Pression [Hpa]
Min1 Max.2 Moy.3 Max. Min Max.
6.9 13.0 8 92.6 0 h 0 min 0 1010.5 1013.6

1 Température minimale relevée entre 18:00 UTC la veille et 18:00 UTC le jour donné.

2 Température maximale relevée entre 06:00 UTC le jour donné et 06:00 UTC le lendemain.

3 Vent moyen de la journée basé sur les relevés horaires.

4 Ensoleillement en heures relevé entre 06:00 UTC la veille et 06:00 UTC le jour donné.

5 Précipitations totales tombées entre 06:00 UTC la jour donné et 06:00 UTC le lendemain.

Graphiques horaires